ROYN/OGN METAR and TAF weather

Enter ICAO airport designator
Station Type Date Time Source
ROYN METAR 2024/06/16 09:00 UTC NOAA

ROYN 160900Z AUTO 18011KT 9999 NCD 30/27 Q1007


Station Type Date Time Source
ROYN Decoded METAR 2024/06/16 09:00 UTC NOAA

Yonaguni Airport, Japan (ROYN) 24-28N 122-59E 19M
Jun 16, 2024 - 05:00 AM EDT / 2024.06.16 0900 UTC
Wind: from the S (180 degrees) at 13 MPH (11 KT):0
Visibility: greater than 7 mile(s):0
Temperature: 86 F (30 C)
Heat index: 101.8 F (38.8 C):1
Dew Point: 80 F (27 C)
Relative Humidity: 84%
Pressure (altimeter): 29.74 in. Hg (1007 hPa)
ob: ROYN 160900Z AUTO 18011KT 9999 NCD 30/27 Q1007
cycle: 9

Station Type Date Time Source
ROYN TAF UTC NOAA

Error!

Example: see airport list